Time;durP1;ratioP1;P1;durP2;ratioP2;P2;SDS_P1;SDS_P2;PMS_P1;PMS_P2;Temp;Humidity;BMP_temperature;BMP_pressure;BME280_temperature;BME280_humidity;BME280_pressure;Samples;Min_cycle;Max_cycle;Signal;HPM_P1;HPM_P2
2022/12/07 00:01:09;;;;;;;6.57;4.25;;;18.90;99.90;;;;;;4163646;28;20228;-72
2022/12/07 00:03:12;;;;;;;5.57;4.07;;;18.90;99.90;;;;;;4161451;28;20263;-73
2022/12/07 00:05:15;;;;;;;4.93;3.75;;;18.90;99.90;;;;;;4161624;28;20253;-72
2022/12/07 00:07:17;;;;;;;5.13;4.00;;;18.90;99.90;;;;;;4161444;28;20224;-72
2022/12/07 00:09:20;;;;;;;4.75;4.15;;;18.90;99.90;;;;;;4162337;28;20224;-73
2022/12/07 00:11:23;;;;;;;4.53;3.40;;;18.90;99.90;;;;;;4158570;28;20266;-71
2022/12/07 00:13:26;;;;;;;4.60;3.60;;;18.90;99.90;;;;;;4162989;28;20212;-73
2022/12/07 00:15:28;;;;;;;4.90;4.00;;;18.90;99.90;;;;;;4152970;28;20721;-73
2022/12/07 00:17:30;;;;;;;5.18;3.88;;;18.80;99.90;;;;;;4161171;28;20615;-73
2022/12/07 00:19:34;;;;;;;5.75;4.07;;;18.80;99.90;;;;;;4162409;28;20288;-72
2022/12/07 00:21:37;;;;;;;5.60;3.90;;;18.80;99.90;;;;;;4164260;28;20369;-73
2022/12/07 00:23:39;;;;;;;4.40;3.72;;;18.80;99.90;;;;;;4163558;28;20220;-73
2022/12/07 00:25:42;;;;;;;4.40;3.80;;;18.80;99.90;;;;;;4160113;28;20432;-73
2022/12/07 00:27:44;;;;;;;4.60;3.75;;;18.80;99.90;;;;;;4158692;28;20362;-73
2022/12/07 00:29:46;;;;;;;6.32;3.95;;;18.80;99.90;;;;;;4162566;28;20220;-73
2022/12/07 00:31:49;;;;;;;5.70;3.88;;;18.80;99.90;;;;;;4161837;28;20272;-72
2022/12/07 00:33:52;;;;;;;6.07;4.03;;;18.80;99.90;;;;;;4162216;28;20719;-73
2022/12/07 00:35:58;;;;;;;5.47;4.03;;;18.80;99.90;;;;;;4156302;28;20279;-73
2022/12/07 00:38:00;;;;;;;4.13;3.45;;;18.80;99.90;;;;;;4162272;28;20274;-73
2022/12/07 00:40:02;;;;;;;5.70;4.00;;;18.70;99.90;;;;;;4162052;28;20308;-73
2022/12/07 00:42:05;;;;;;;4.40;3.95;;;18.70;99.90;;;;;;4159019;28;20209;-73
2022/12/07 00:44:07;;;;;;;4.18;3.47;;;18.70;99.90;;;;;;4163002;28;20270;-73
2022/12/07 00:46:10;;;;;;;4.82;3.85;;;18.70;99.90;;;;;;4161276;28;20774;-73
2022/12/07 00:48:12;;;;;;;4.00;3.13;;;18.70;99.90;;;;;;4159266;28;20302;-73
2022/12/07 00:50:15;;;;;;;4.82;4.03;;;18.70;99.90;;;;;;4162706;28;20293;-73
2022/12/07 00:52:18;;;;;;;4.47;3.88;;;18.70;99.90;;;;;;4162025;28;20263;-73
2022/12/07 00:54:21;;;;;;;5.45;4.28;;;18.70;99.90;;;;;;4162287;28;20604;-73
2022/12/07 00:56:25;;;;;;;4.88;3.90;;;18.70;99.90;;;;;;4162474;28;20236;-72
2022/12/07 00:58:27;;;;;;;4.28;3.50;;;18.70;99.90;;;;;;4161472;28;20255;-73
2022/12/07 01:00:30;;;;;;;4.53;3.85;;;18.70;99.90;;;;;;4161117;28;20212;-73
2022/12/07 01:02:32;;;;;;;5.88;3.92;;;18.70;99.90;;;;;;4161210;28;20220;-73
2022/12/07 01:04:35;;;;;;;5.07;3.67;;;18.60;99.90;;;;;;4158255;28;20226;-73
2022/12/07 01:06:37;;;;;;;5.35;3.90;;;18.60;99.90;;;;;;4161087;28;20212;-73
2022/12/07 01:08:41;;;;;;;4.60;3.70;;;18.60;99.90;;;;;;4161173;28;20220;-73
2022/12/07 01:10:43;;;;;;;5.13;3.97;;;18.60;99.90;;;;;;4161144;28;20282;-73
2022/12/07 01:12:45;;;;;;;5.90;4.05;;;18.60;99.90;;;;;;4161686;28;20220;-73
2022/12/07 01:14:48;;;;;;;4.47;3.70;;;18.60;99.90;;;;;;4158939;28;20224;-73
2022/12/07 01:16:50;;;;;;;5.40;3.67;;;18.60;99.90;;;;;;4161235;28;20283;-73
2022/12/07 01:18:55;;;;;;;5.72;3.72;;;18.60;99.90;;;;;;4161154;28;20691;-73
2022/12/07 01:21:02;;;;;;;5.88;3.63;;;18.60;99.90;;;;;;4160631;28;20217;-73
2022/12/07 01:23:04;;;;;;;4.65;3.72;;;18.60;99.90;;;;;;4157940;28;20657;-73
2022/12/07 01:25:09;;;;;;;5.35;3.72;;;18.60;99.90;;;;;;4159033;28;20220;-73
2022/12/07 01:27:11;;;;;;;4.57;3.70;;;18.60;99.90;;;;;;4158141;28;20598;-73
2022/12/07 01:29:13;;;;;;;4.88;3.75;;;18.60;99.90;;;;;;4161748;28;20225;-73
2022/12/07 01:31:18;;;;;;;5.80;3.97;;;18.60;99.90;;;;;;4159768;28;20584;-73
2022/12/07 01:33:20;;;;;;;5.30;4.07;;;18.50;99.90;;;;;;4159399;28;20221;-73
2022/12/07 01:35:22;;;;;;;6.00;3.90;;;18.50;99.90;;;;;;4161396;28;20220;-73
2022/12/07 01:37:25;;;;;;;4.35;3.88;;;18.50;99.90;;;;;;4158977;28;20345;-73
2022/12/07 01:39:27;;;;;;;4.75;3.83;;;18.50;99.90;;;;;;4155931;28;20213;-73
2022/12/07 01:41:33;;;;;;;5.45;4.05;;;18.50;99.90;;;;;;4160689;28;20220;-73
2022/12/07 01:43:35;;;;;;;5.43;3.92;;;18.50;99.90;;;;;;4161730;28;20282;-73
2022/12/07 01:45:40;;;;;;;4.55;3.65;;;18.50;99.90;;;;;;4161454;28;20714;-73
2022/12/07 01:47:44;;;;;;;4.55;3.63;;;18.50;99.90;;;;;;4162652;28;20282;-72
2022/12/07 01:49:49;;;;;;;3.72;3.20;;;18.50;99.90;;;;;;4160014;28;20220;-73
2022/12/07 01:51:56;;;;;;;4.78;4.15;;;18.50;99.90;;;;;;4158290;28;20259;-73
2022/12/07 01:53:59;;;;;;;5.75;3.72;;;18.50;99.90;;;;;;4162760;28;20224;-73
2022/12/07 01:56:02;;;;;;;4.43;3.60;;;18.50;99.90;;;;;;4154111;28;20346;-73
2022/12/07 01:58:05;;;;;;;4.60;3.72;;;18.50;99.90;;;;;;4156469;28;20270;-73
2022/12/07 02:00:10;;;;;;;5.03;3.92;;;18.50;99.90;;;;;;4157083;28;20657;-73
2022/12/07 02:02:19;;;;;;;4.35;3.80;;;18.50;99.90;;;;;;4162647;28;20220;-72
2022/12/07 02:04:22;;;;;;;5.10;3.92;;;18.50;99.90;;;;;;4162230;28;20562;-73
2022/12/07 02:06:26;;;;;;;4.15;3.60;;;18.40;99.90;;;;;;4155739;28;20830;-73
2022/12/07 02:08:29;;;;;;;5.38;3.63;;;18.40;99.90;;;;;;4157917;28;20212;-73
2022/12/07 02:10:33;;;;;;;4.47;3.83;;;18.40;99.90;;;;;;4162512;28;20303;-72
2022/12/07 02:12:35;;;;;;;4.82;3.33;;;18.50;99.90;;;;;;4157480;28;20221;-73
2022/12/07 02:14:39;;;;;;;4.05;3.45;;;18.40;99.90;;;;;;4159049;28;20560;-73
2022/12/07 02:16:55;;;;;;;6.50;3.67;;;18.40;99.90;;;;;;4158532;28;20236;-73
2022/12/07 02:19:26;;;;;;;4.22;3.72;;;18.40;99.90;;;;;;4159274;28;20213;-73
2022/12/07 02:21:37;;;;;;;3.88;3.45;;;18.40;99.90;;;;;;4156873;28;20220;-73
2022/12/07 02:24:10;;;;;;;4.97;3.42;;;18.40;99.90;;;;;;4158971;28;20232;-72
2022/12/07 02:26:45;;;;;;;5.18;3.67;;;18.40;99.90;;;;;;4126339;28;20220;-72
2022/12/07 02:29:09;;;;;;;4.85;3.67;;;18.40;99.90;;;;;;4156008;28;20216;-73
2022/12/07 02:31:16;;;;;;;5.95;4.15;;;18.40;99.90;;;;;;4158002;28;20286;-73
2022/12/07 02:33:25;;;;;;;5.82;3.42;;;18.40;99.90;;;;;;4159555;28;20216;-73
2022/12/07 02:35:33;;;;;;;4.47;3.58;;;18.40;99.90;;;;;;4159688;28;20219;-73
2022/12/07 02:37:40;;;;;;;5.38;3.72;;;18.40;99.90;;;;;;4160017;28;21051;-73
2022/12/07 02:39:47;;;;;;;3.70;3.30;;;18.40;99.90;;;;;;4158851;28;20213;-73
2022/12/07 02:41:53;;;;;;;4.88;3.53;;;18.40;99.90;;;;;;4157300;28;20290;-73
2022/12/07 02:44:00;;;;;;;4.60;3.60;;;18.30;99.90;;;;;;4160386;28;20250;-73
2022/12/07 02:46:06;;;;;;;4.55;3.80;;;18.40;99.90;;;;;;4149112;28;20220;-73
2022/12/07 02:48:10;;;;;;;4.25;3.70;;;18.40;99.90;;;;;;4160269;28;20229;-73
2022/12/07 02:50:13;;;;;;;3.83;3.25;;;18.40;99.90;;;;;;4160669;28;20212;-73
2022/12/07 02:52:15;;;;;;;5.85;4.05;;;18.40;99.90;;;;;;4161557;28;20274;-73
2022/12/07 02:54:20;;;;;;;4.43;3.80;;;18.30;99.90;;;;;;4160520;28;20784;-73
2022/12/07 02:56:31;;;;;;;4.25;3.85;;;18.30;99.90;;;;;;4159071;28;20602;-73
2022/12/07 02:58:44;;;;;;;5.03;3.80;;;18.30;99.90;;;;;;4159229;28;20220;-73
2022/12/07 03:00:55;;;;;;;3.67;3.22;;;18.30;99.90;;;;;;4158239;28;20216;-73
2022/12/07 03:03:02;;;;;;;3.60;3.30;;;18.30;99.90;;;;;;4160776;28;20212;-73
2022/12/07 03:05:29;;;;;;;3.55;3.25;;;18.30;99.90;;;;;;4157940;28;20216;-73
2022/12/07 03:07:40;;;;;;;5.20;3.65;;;18.30;99.90;;;;;;4160396;28;20216;-73
2022/12/07 03:09:52;;;;;;;4.40;4.00;;;18.30;99.90;;;;;;4160577;28;20286;-73
2022/12/07 03:12:02;;;;;;;5.53;3.80;;;18.30;99.90;;;;;;4160596;28;20224;-73
2022/12/07 03:14:14;;;;;;;6.28;3.53;;;18.30;99.90;;;;;;4158663;28;20610;-73
2022/12/07 03:16:21;;;;;;;4.40;3.40;;;18.30;99.90;;;;;;4160066;28;20259;-73
2022/12/07 03:18:26;;;;;;;5.20;3.78;;;18.20;99.90;;;;;;4158455;28;20831;-73
2022/12/07 03:20:30;;;;;;;4.53;3.45;;;18.30;99.90;;;;;;4159615;28;20579;-73
2022/12/07 03:22:36;;;;;;;3.90;3.35;;;18.30;99.90;;;;;;4157346;28;20286;-73
2022/12/07 03:24:43;;;;;;;4.43;3.67;;;18.30;99.90;;;;;;4160436;28;20220;-73
2022/12/07 03:26:50;;;;;;;3.90;3.50;;;18.20;99.90;;;;;;4155982;28;20267;-73
2022/12/07 03:28:59;;;;;;;4.47;3.50;;;18.20;99.90;;;;;;4159963;28;20243;-73
2022/12/07 03:31:04;;;;;;;4.05;3.10;;;18.20;99.90;;;;;;4156846;28;20331;-73
2022/12/07 03:33:12;;;;;;;3.15;2.83;;;18.20;99.90;;;;;;4160402;28;20212;-73
2022/12/07 03:35:18;;;;;;;4.28;3.25;;;18.20;99.90;;;;;;4157015;28;20224;-73
2022/12/07 03:37:28;;;;;;;5.35;3.40;;;18.20;99.90;;;;;;4160056;28;20240;-73
2022/12/07 03:39:35;;;;;;;4.30;3.47;;;18.20;99.90;;;;;;4157110;28;20261;-73
2022/12/07 03:41:38;;;;;;;4.53;3.53;;;18.20;99.90;;;;;;4159180;28;20262;-73
2022/12/07 03:43:42;;;;;;;3.95;3.25;;;18.20;99.90;;;;;;4160720;28;20718;-73
2022/12/07 03:45:47;;;;;;;4.68;3.20;;;18.20;99.90;;;;;;4159084;28;20704;-73
2022/12/07 03:48:02;;;;;;;3.65;2.83;;;18.20;99.90;;;;;;4157632;28;20296;-73
2022/12/07 03:50:13;;;;;;;4.28;3.47;;;18.20;99.90;;;;;;4160502;28;20282;-73
2022/12/07 03:52:23;;;;;;;3.47;3.10;;;18.10;99.90;;;;;;4157504;28;20270;-73
2022/12/07 03:54:29;;;;;;;3.67;3.35;;;18.10;99.90;;;;;;4160216;28;20266;-73
2022/12/07 03:56:33;;;;;;;4.88;3.85;;;18.20;99.90;;;;;;4158944;28;20258;-73
2022/12/07 03:58:37;;;;;;;4.20;3.67;;;18.10;99.90;;;;;;4158067;28;20220;-73
2022/12/07 04:00:39;;;;;;;3.42;3.13;;;18.10;99.90;;;;;;4160663;28;20221;-73
2022/12/07 04:02:43;;;;;;;3.80;3.20;;;18.10;99.90;;;;;;4161346;28;20224;-73
2022/12/07 04:04:45;;;;;;;3.95;3.40;;;18.10;99.90;;;;;;4157392;28;20216;-73
2022/12/07 04:06:49;;;;;;;3.60;3.00;;;18.10;99.90;;;;;;4159814;28;20274;-74
2022/12/07 04:08:52;;;;;;;3.67;3.08;;;18.10;99.90;;;;;;4155355;28;20626;-73
2022/12/07 04:10:54;;;;;;;3.58;3.28;;;18.10;99.90;;;;;;4159485;28;20217;-73
2022/12/07 04:12:56;;;;;;;3.70;3.03;;;18.10;99.90;;;;;;4159294;28;20271;-73
2022/12/07 04:14:59;;;;;;;4.00;3.42;;;18.10;99.90;;;;;;4159270;28;20275;-73
2022/12/07 04:17:01;;;;;;;3.60;3.20;;;18.10;99.90;;;;;;4159908;28;20270;-73
2022/12/07 04:19:04;;;;;;;4.30;3.72;;;18.10;99.90;;;;;;4159866;28;20213;-73
2022/12/07 04:21:06;;;;;;;3.38;2.88;;;18.00;99.90;;;;;;4160136;28;20224;-73
2022/12/07 04:23:10;;;;;;;4.97;3.22;;;18.10;99.90;;;;;;4157892;28;20213;-73
2022/12/07 04:25:12;;;;;;;3.90;3.40;;;18.00;99.90;;;;;;4160506;28;20228;-73
2022/12/07 04:27:15;;;;;;;3.70;3.30;;;18.00;99.90;;;;;;4156350;28;20270;-73
2022/12/07 04:29:18;;;;;;;3.83;3.33;;;18.10;99.90;;;;;;4157831;28;20232;-73
2022/12/07 04:31:20;;;;;;;4.97;3.20;;;18.00;99.90;;;;;;4159030;28;20737;-73
2022/12/07 04:33:22;;;;;;;4.97;3.42;;;18.00;99.90;;;;;;4159106;28;20244;-73
2022/12/07 04:35:25;;;;;;;3.25;2.83;;;18.00;99.90;;;;;;4159210;28;20270;-73
2022/12/07 04:37:27;;;;;;;3.33;3.00;;;18.00;99.90;;;;;;4159669;28;20294;-73
2022/12/07 04:39:33;;;;;;;5.05;3.33;;;18.00;99.90;;;;;;4159272;28;20212;-73
2022/12/07 04:41:36;;;;;;;3.80;3.40;;;18.00;99.90;;;;;;4162152;28;20228;-73
2022/12/07 04:43:38;;;;;;;4.07;3.10;;;18.00;99.90;;;;;;4159239;28;20216;-73
2022/12/07 04:45:45;;;;;;;4.45;3.10;;;18.00;99.90;;;;;;4161237;28;20216;-73
2022/12/07 04:47:48;;;;;;;4.88;3.53;;;18.00;99.90;;;;;;4161761;28;20216;-73
2022/12/07 04:49:50;;;;;;;5.82;3.20;;;18.00;99.90;;;;;;4162034;28;20216;-73
2022/12/07 04:51:53;;;;;;;4.18;3.47;;;18.00;99.90;;;;;;4161252;28;20225;-73
2022/12/07 04:53:56;;;;;;;3.75;3.13;;;18.00;99.90;;;;;;4162802;28;20220;-73
2022/12/07 04:56:00;;;;;;;4.53;3.55;;;18.00;99.90;;;;;;4158995;28;20221;-73
2022/12/07 04:58:03;;;;;;;4.63;3.58;;;18.00;99.90;;;;;;4161426;28;20282;-73
2022/12/07 05:00:07;;;;;;;4.00;3.17;;;18.00;99.90;;;;;;4157292;28;20279;-73
2022/12/07 05:02:09;;;;;;;4.68;3.08;;;18.00;99.90;;;;;;4161100;28;20283;-73
2022/12/07 05:04:11;;;;;;;3.90;3.17;;;18.00;99.90;;;;;;4159227;28;20217;-73
2022/12/07 05:06:14;;;;;;;4.82;3.22;;;18.00;99.90;;;;;;4160974;28;20212;-73
2022/12/07 05:08:16;;;;;;;4.10;3.08;;;18.00;99.90;;;;;;4161203;28;20217;-73
2022/12/07 05:10:19;;;;;;;3.85;3.00;;;18.00;99.90;;;;;;4161207;28;20274;-73
2022/12/07 05:12:23;;;;;;;3.42;3.00;;;17.90;99.90;;;;;;4161586;28;20225;-74
2022/12/07 05:14:25;;;;;;;3.50;3.20;;;17.90;99.90;;;;;;4157163;28;20209;-73
2022/12/07 05:16:28;;;;;;;3.60;3.17;;;17.90;99.90;;;;;;4159166;28;20291;-73
2022/12/07 05:18:30;;;;;;;4.03;3.10;;;17.90;99.90;;;;;;4161655;28;20240;-73
2022/12/07 05:20:32;;;;;;;3.28;2.97;;;17.90;99.90;;;;;;4160575;28;20220;-73
2022/12/07 05:22:35;;;;;;;3.83;2.95;;;17.90;99.90;;;;;;4161080;28;20279;-73
2022/12/07 05:24:37;;;;;;;4.00;3.30;;;17.90;99.90;;;;;;4161054;28;20216;-73
2022/12/07 05:26:40;;;;;;;3.42;2.90;;;17.90;99.90;;;;;;4159991;28;20213;-73
2022/12/07 05:28:44;;;;;;;3.65;3.10;;;17.90;99.90;;;;;;4162126;28;20672;-73
2022/12/07 05:30:47;;;;;;;3.42;2.92;;;17.90;99.90;;;;;;4158289;28;20240;-72
2022/12/07 05:32:49;;;;;;;3.03;2.67;;;17.90;99.90;;;;;;4160215;28;20224;-73
2022/12/07 05:34:52;;;;;;;3.60;3.20;;;17.90;99.90;;;;;;4159758;28;20605;-73
2022/12/07 05:36:54;;;;;;;4.22;3.22;;;17.90;99.90;;;;;;4161156;28;20270;-73
2022/12/07 05:38:56;;;;;;;4.03;2.90;;;17.90;99.90;;;;;;4160405;28;20251;-73
2022/12/07 05:41:02;;;;;;;3.80;3.00;;;17.90;99.90;;;;;;4161667;28;20819;-73
2022/12/07 05:43:04;;;;;;;4.25;3.25;;;17.90;99.90;;;;;;4160120;28;20667;-73
2022/12/07 05:45:10;;;;;;;3.65;3.00;;;17.90;99.90;;;;;;4161660;28;21072;-73
2022/12/07 05:47:13;;;;;;;5.13;3.30;;;17.80;99.90;;;;;;4160784;28;20259;-73
2022/12/07 05:49:16;;;;;;;4.13;2.92;;;17.90;99.90;;;;;;4160468;28;20221;-73
2022/12/07 05:51:19;;;;;;;3.83;3.15;;;17.80;99.90;;;;;;4159735;28;20228;-72
2022/12/07 05:53:21;;;;;;;3.95;3.05;;;17.90;99.90;;;;;;4161361;28;20216;-73
2022/12/07 05:55:23;;;;;;;4.57;3.17;;;17.90;99.90;;;;;;4161348;28;20653;-73
2022/12/07 05:57:26;;;;;;;3.50;3.17;;;17.80;99.90;;;;;;4160216;28;20229;-73
2022/12/07 05:59:27;;;;;;;4.40;3.28;;;17.80;99.90;;;;;;4156673;28;20241;-73
2022/12/07 06:01:31;;;;;;;5.13;3.10;;;17.90;99.90;;;;;;4160423;28;20274;-73
2022/12/07 06:03:33;;;;;;;3.10;2.80;;;17.90;99.90;;;;;;4159925;28;20307;-73
2022/12/07 06:05:36;;;;;;;3.00;2.67;;;18.00;99.90;;;;;;4158883;28;20220;-73
2022/12/07 06:07:38;;;;;;;4.35;2.95;;;18.00;99.90;;;;;;4160051;28;20735;-73
2022/12/07 06:09:40;;;;;;;4.40;3.10;;;18.00;99.90;;;;;;4160842;28;20214;-73
2022/12/07 06:14:06;;;;;;;4.30;2.63;;;18.10;99.90;;;;;;4156901;28;20204;-73
2022/12/07 06:16:08;;;;;;;3.40;3.10;;;18.10;99.90;;;;;;4159442;28;20270;-73
2022/12/07 06:18:12;;;;;;;3.17;2.83;;;18.20;99.90;;;;;;4160349;28;20236;-73
2022/12/07 06:20:14;;;;;;;4.82;2.88;;;18.20;99.90;;;;;;4159637;28;20263;-73
2022/12/07 06:22:17;;;;;;;3.00;2.67;;;18.20;99.90;;;;;;4159558;28;20216;-73
2022/12/07 06:24:19;;;;;;;4.82;3.00;;;18.30;99.90;;;;;;4160027;28;20208;-73
2022/12/07 06:26:22;;;;;;;3.30;2.80;;;18.30;99.90;;;;;;4161889;28;20274;-73
2022/12/07 06:28:24;;;;;;;2.83;2.50;;;18.30;99.90;;;;;;4160317;28;20217;-73
2022/12/07 06:30:26;;;;;;;3.03;2.50;;;18.40;99.90;;;;;;4157506;28;20271;-73
2022/12/07 06:32:29;;;;;;;3.00;2.70;;;18.40;99.90;;;;;;4160848;28;20208;-73
2022/12/07 06:34:33;;;;;;;3.58;2.70;;;18.40;99.90;;;;;;4160227;28;20274;-73
2022/12/07 06:36:35;;;;;;;3.45;2.70;;;18.40;99.90;;;;;;4159275;28;20286;-73
2022/12/07 06:38:38;;;;;;;3.90;2.60;;;18.40;99.90;;;;;;4159780;28;20240;-73
2022/12/07 06:40:40;;;;;;;3.15;2.67;;;18.40;99.90;;;;;;4158618;28;20228;-73
2022/12/07 06:42:43;;;;;;;3.58;2.50;;;18.50;99.90;;;;;;4158986;28;20714;-73
2022/12/07 06:44:45;;;;;;;3.17;2.63;;;18.50;99.90;;;;;;4160303;28;20298;-73
2022/12/07 06:46:47;;;;;;;4.07;2.85;;;18.50;99.90;;;;;;4160753;28;20225;-73
2022/12/07 06:48:50;;;;;;;3.38;2.50;;;18.40;99.90;;;;;;4160539;28;20216;-73
2022/12/07 06:50:53;;;;;;;4.47;2.75;;;18.50;99.90;;;;;;4161474;28;20295;-73
2022/12/07 06:52:56;;;;;;;4.38;2.88;;;18.50;99.90;;;;;;4159527;28;20262;-73
2022/12/07 06:54:58;;;;;;;3.50;2.60;;;18.50;99.90;;;;;;4159505;28;20217;-73
2022/12/07 06:57:00;;;;;;;3.60;2.63;;;18.50;99.90;;;;;;4160073;28;20720;-73
2022/12/07 06:59:03;;;;;;;3.05;2.63;;;18.50;99.90;;;;;;4159748;28;20240;-73
2022/12/07 07:01:10;;;;;;;3.42;2.42;;;18.50;99.90;;;;;;4160106;28;20263;-73
2022/12/07 07:03:12;;;;;;;2.80;2.50;;;18.50;99.90;;;;;;4155937;28;20224;-73
2022/12/07 07:05:15;;;;;;;3.67;2.90;;;18.50;99.90;;;;;;4159706;28;20276;-73
2022/12/07 07:07:19;;;;;;;2.70;2.50;;;18.60;99.90;;;;;;4160524;28;20220;-73
2022/12/07 07:09:21;;;;;;;2.75;2.40;;;18.60;99.90;;;;;;4160633;28;20271;-73
2022/12/07 07:11:23;;;;;;;3.35;2.60;;;18.60;99.90;;;;;;4160483;28;20216;-73
2022/12/07 07:13:26;;;;;;;3.00;2.47;;;18.60;99.90;;;;;;4156898;28;20216;-72
2022/12/07 07:15:28;;;;;;;4.20;2.65;;;18.60;99.90;;;;;;4158914;28;20682;-73
2022/12/07 07:17:31;;;;;;;3.28;2.53;;;18.70;99.90;;;;;;4157309;28;20220;-73
2022/12/07 07:19:33;;;;;;;3.72;2.53;;;18.70;99.90;;;;;;4158794;28;20236;-73
2022/12/07 07:21:35;;;;;;;3.22;2.47;;;18.70;99.90;;;;;;4160459;28;20258;-73
2022/12/07 07:23:39;;;;;;;3.50;2.40;;;18.70;99.90;;;;;;4159377;28;20285;-73
2022/12/07 07:25:41;;;;;;;2.53;2.20;;;18.70;99.90;;;;;;4160050;28;20208;-73
2022/12/07 07:27:44;;;;;;;3.38;2.20;;;18.70;99.90;;;;;;4156687;28;20632;-73
2022/12/07 07:29:46;;;;;;;2.47;2.22;;;18.80;99.90;;;;;;4157195;28;20220;-73
2022/12/07 07:31:49;;;;;;;2.97;2.50;;;18.70;99.90;;;;;;4158917;28;20232;-73
2022/12/07 07:33:51;;;;;;;2.97;2.42;;;18.70;99.90;;;;;;4159162;28;20267;-73
2022/12/07 07:35:53;;;;;;;2.42;2.22;;;18.80;99.90;;;;;;4159265;28;20664;-74
2022/12/07 07:37:58;;;;;;;4.43;2.67;;;18.80;99.90;;;;;;4160985;28;20266;-73
2022/12/07 07:40:02;;;;;;;2.70;2.28;;;18.80;99.90;;;;;;4161230;28;20759;-73
2022/12/07 07:42:05;;;;;;;3.83;2.55;;;18.80;99.90;;;;;;4157615;28;20216;-73
2022/12/07 07:44:07;;;;;;;2.90;2.20;;;18.80;99.90;;;;;;4159097;28;20221;-73
2022/12/07 07:46:10;;;;;;;2.70;2.30;;;18.80;99.90;;;;;;4159154;28;20966;-73
2022/12/07 07:48:12;;;;;;;2.88;2.28;;;18.90;99.90;;;;;;4158023;28;20220;-73
2022/12/07 07:50:15;;;;;;;2.30;2.10;;;18.90;99.90;;;;;;4157999;28;20216;-73
2022/12/07 07:52:18;;;;;;;3.33;2.40;;;18.90;99.90;;;;;;4159248;28;20262;-73
2022/12/07 07:54:20;;;;;;;4.35;2.55;;;18.90;99.90;;;;;;4158548;28;20225;-73
2022/12/07 07:56:24;;;;;;;3.03;2.17;;;18.90;99.90;;;;;;4159023;28;20267;-73
2022/12/07 07:58:26;;;;;;;4.65;2.60;;;18.90;99.90;;;;;;4160084;28;20278;-74
2022/12/07 08:00:29;;;;;;;3.17;2.60;;;18.90;99.90;;;;;;4160765;28;20232;-74
2022/12/07 08:02:31;;;;;;;3.28;2.35;;;18.90;99.90;;;;;;4160385;28;20635;-73
2022/12/07 08:04:33;;;;;;;3.60;2.38;;;19.00;99.90;;;;;;4156186;28;20217;-73
2022/12/07 08:06:36;;;;;;;2.90;2.50;;;19.00;99.90;;;;;;4159722;28;20242;-73
2022/12/07 08:08:38;;;;;;;4.25;2.33;;;19.00;99.90;;;;;;4154931;28;21061;-73
2022/12/07 08:10:40;;;;;;;3.00;2.47;;;19.00;99.90;;;;;;4157567;28;20270;-73
2022/12/07 08:15:05;;;;;;;3.03;2.63;;;19.00;99.90;;;;;;4161871;28;20212;-73
2022/12/07 08:17:07;;;;;;;4.97;2.67;;;19.00;99.90;;;;;;4157891;28;20219;-74
2022/12/07 08:19:10;;;;;;;7.35;3.20;;;18.90;99.90;;;;;;4149843;28;21154;-74
2022/12/07 08:21:15;;;;;;;4.95;2.47;;;18.90;99.90;;;;;;4155242;28;20220;-74
2022/12/07 08:23:17;;;;;;;4.38;2.72;;;19.00;99.90;;;;;;4157855;28;20220;-73
2022/12/07 08:25:20;;;;;;;3.58;2.45;;;19.00;99.90;;;;;;4160250;28;20221;-74
2022/12/07 08:27:26;;;;;;;4.05;2.70;;;19.10;99.90;;;;;;4154190;28;20336;-74
2022/12/07 08:29:30;;;;;;;3.65;2.47;;;19.10;99.90;;;;;;4158275;28;20286;-74
2022/12/07 08:31:32;;;;;;;4.38;2.50;;;19.10;99.90;;;;;;4155935;28;20228;-73
2022/12/07 08:33:35;;;;;;;6.90;2.60;;;19.10;99.90;;;;;;4156342;28;20216;-73
2022/12/07 08:35:38;;;;;;;4.57;3.22;;;19.10;99.90;;;;;;4156215;28;21064;-72
2022/12/07 08:37:41;;;;;;;10.43;5.05;;;19.00;99.90;;;;;;4156462;28;20271;-72
2022/12/07 08:39:43;;;;;;;9.20;6.88;;;18.60;99.20;;;;;;4161380;28;20652;-72
2022/12/07 08:41:45;;;;;;;11.00;7.15;;;17.20;95.20;;;;;;4162556;28;20270;-72
2022/12/07 08:43:48;;;;;;;9.53;7.03;;;14.90;97.20;;;;;;4154023;28;20682;-73
2022/12/07 08:45:58;;;;;;;15.70;8.03;;;13.30;99.90;;;;;;4157459;28;20238;-74
2022/12/07 08:48:06;;;;;;;11.47;8.10;;;12.20;99.90;;;;;;4159387;28;20278;-74
2022/12/07 08:50:11;;;;;;;10.10;7.90;;;11.30;99.90;;;;;;4156186;28;20284;-71
2022/12/07 08:52:14;;;;;;;11.43;7.30;;;10.30;99.90;;;;;;4154512;28;20319;-72
2022/12/07 08:54:19;;;;;;;12.47;6.67;;;11.40;99.90;;;;;;4151389;28;20221;-71
2022/12/07 08:56:22;;;;;;;10.80;5.77;;;12.70;99.90;;;;;;4155593;28;20243;-71
2022/12/07 08:58:25;;;;;;;9.73;6.33;;;13.70;99.90;;;;;;4146543;28;20220;-72
2022/12/07 09:00:27;;;;;;;12.30;6.13;;;14.60;99.90;;;;;;4156112;28;20237;-72
2022/12/07 09:02:32;;;;;;;10.40;5.43;;;15.20;99.90;;;;;;4149195;28;20603;-74
2022/12/07 09:04:34;;;;;;;9.03;5.67;;;15.70;99.90;;;;;;4158982;28;20224;-73
2022/12/07 09:06:36;;;;;;;8.88;4.78;;;16.10;99.90;;;;;;4160637;28;20224;-73
2022/12/07 09:08:43;;;;;;;6.78;4.43;;;16.40;99.90;;;;;;4154599;28;20220;-73
2022/12/07 09:10:46;;;;;;;8.35;4.88;;;16.70;99.90;;;;;;4147595;28;20212;-73
2022/12/07 09:12:48;;;;;;;7.32;4.63;;;17.00;99.90;;;;;;4157405;28;21551;-73
2022/12/07 09:14:50;;;;;;;10.48;4.50;;;17.20;99.90;;;;;;4151526;28;20278;-72
2022/12/07 09:16:52;;;;;;;8.15;4.28;;;17.40;99.90;;;;;;4151186;28;20216;-72
2022/12/07 09:18:56;;;;;;;9.05;4.38;;;17.60;99.90;;;;;;4156307;28;20271;-71
2022/12/07 09:20:59;;;;;;;9.95;3.95;;;17.70;99.90;;;;;;4160724;28;20639;-71
2022/12/07 09:23:01;;;;;;;5.25;3.63;;;17.90;99.90;;;;;;4157395;28;20213;-71
2022/12/07 09:25:04;;;;;;;7.93;3.75;;;18.00;99.90;;;;;;4154936;28;20212;-71
2022/12/07 09:27:07;;;;;;;6.30;3.35;;;18.10;99.90;;;;;;4155563;28;20271;-72
2022/12/07 09:29:09;;;;;;;5.15;2.97;;;18.20;99.90;;;;;;4156500;28;20673;-71
2022/12/07 09:31:12;;;;;;;7.90;3.25;;;18.30;99.90;;;;;;4156348;28;20237;-71
2022/12/07 09:33:14;;;;;;;6.20;3.20;;;18.30;99.90;;;;;;4159281;28;20626;-71
2022/12/07 09:35:18;;;;;;;6.05;2.95;;;18.50;99.90;;;;;;4157956;28;20221;-71
2022/12/07 09:37:20;;;;;;;5.28;3.50;;;18.50;99.90;;;;;;4160338;28;20220;-71
2022/12/07 09:39:23;;;;;;;4.80;3.30;;;18.60;99.90;;;;;;4153178;28;20286;-71
2022/12/07 09:41:28;;;;;;;7.20;3.25;;;18.60;99.90;;;;;;4157915;28;20318;-71
2022/12/07 09:43:30;;;;;;;6.55;3.08;;;18.70;99.90;;;;;;4157011;28;20225;-71
2022/12/07 09:45:35;;;;;;;5.63;3.13;;;18.80;99.90;;;;;;4155653;28;20217;-71
2022/12/07 09:47:38;;;;;;;3.30;2.20;;;18.80;99.90;;;;;;4151508;28;20221;-71
2022/12/07 09:49:40;;;;;;;7.43;3.30;;;18.90;99.90;;;;;;4155858;28;20224;-71
2022/12/07 09:51:44;;;;;;;6.68;3.28;;;18.90;99.90;;;;;;4152953;28;20669;-71
2022/12/07 09:53:47;;;;;;;4.80;3.10;;;19.00;99.90;;;;;;4154330;28;20690;-71
2022/12/07 09:55:49;;;;;;;6.35;3.00;;;19.00;99.90;;;;;;4156160;28;20613;-72
2022/12/07 09:57:53;;;;;;;4.50;3.10;;;19.10;99.90;;;;;;4156620;28;20274;-71
2022/12/07 09:59:56;;;;;;;3.80;2.47;;;19.10;99.90;;;;;;4150604;28;20212;-71
2022/12/07 10:02:24;;;;;;;4.35;2.80;;;19.20;99.90;;;;;;4154130;28;20258;-71
2022/12/07 10:04:27;;;;;;;4.93;3.00;;;19.20;99.90;;;;;;4155056;28;20267;-71
2022/12/07 10:06:30;;;;;;;5.63;2.83;;;19.30;99.90;;;;;;4153036;28;20213;-71
2022/12/07 10:08:34;;;;;;;3.90;2.67;;;19.30;99.90;;;;;;4152306;28;20284;-71
2022/12/07 10:10:38;;;;;;;4.63;2.80;;;19.30;99.90;;;;;;4156985;28;20216;-71
2022/12/07 10:12:59;;;;;;;4.82;2.72;;;19.40;99.90;;;;;;4153104;28;20552;-71
2022/12/07 10:15:03;;;;;;;4.93;2.92;;;19.40;99.90;;;;;;4150606;28;20275;-71
2022/12/07 10:17:30;;;;;;;3.80;2.33;;;19.50;99.90;;;;;;4156636;28;20285;-71
2022/12/07 10:19:34;;;;;;;4.53;2.70;;;19.50;99.90;;;;;;4156516;28;20283;-71
2022/12/07 10:21:36;;;;;;;5.07;2.78;;;19.50;99.90;;;;;;4158952;28;20286;-71
2022/12/07 10:23:41;;;;;;;5.95;2.70;;;19.50;99.90;;;;;;4151613;28;20662;-71
2022/12/07 10:25:44;;;;;;;4.45;2.70;;;19.60;99.90;;;;;;4150945;28;20212;-71
2022/12/07 10:27:59;;;;;;;3.67;2.70;;;19.60;99.90;;;;;;4155019;28;20273;-71
2022/12/07 10:30:09;;;;;;;6.78;2.65;;;19.60;99.90;;;;;;4152106;28;20221;-72
2022/12/07 10:32:31;;;;;;;4.32;2.70;;;19.70;99.90;;;;;;4154931;28;20236;-71
2022/12/07 10:34:36;;;;;;;3.78;2.75;;;19.70;99.90;;;;;;4152107;28;20220;-72
2022/12/07 10:36:39;;;;;;;6.05;2.65;;;19.70;99.90;;;;;;4152640;28;20262;-71
2022/12/07 10:38:48;;;;;;;3.85;2.55;;;19.80;99.90;;;;;;4157182;28;20282;-72
2022/12/07 10:41:04;;;;;;;5.95;2.60;;;19.80;99.90;;;;;;4153234;28;20244;-71
2022/12/07 10:43:18;;;;;;;4.18;2.67;;;19.80;99.90;;;;;;4152434;28;20598;-72
2022/12/07 10:45:21;;;;;;;4.65;2.58;;;19.80;99.90;;;;;;4158663;28;20216;-72
2022/12/07 10:47:34;;;;;;;4.22;2.40;;;19.80;99.90;;;;;;4158839;28;20266;-72
2022/12/07 10:50:15;;;;;;;2.88;2.40;;;19.90;99.90;;;;;;4156429;28;20220;-72
2022/12/07 10:52:36;;;;;;;3.30;2.38;;;19.80;99.90;;;;;;4157104;28;20266;-72